Time;durP1;ratioP1;P1;durP2;ratioP2;P2;SDS_P1;SDS_P2;PMS_P1;PMS_P2;Temp;Humidity;BMP_temperature;BMP_pressure;BME280_temperature;BME280_humidity;BME280_pressure;Samples;Min_cycle;Max_cycle;Signal;HPM_P1;HPM_P2
2021/12/26 00:00:17;;;;;;;1.30;1.30;;;;;;;1.86;100.00;91999.06;4898008;28;20573;-76
2021/12/26 00:02:45;;;;;;;1.70;1.70;;;;;;;1.83;100.00;92001.63;4899130;28;20218;-76
2021/12/26 00:05:15;;;;;;;1.97;1.87;;;;;;;1.94;100.00;91993.91;4898299;28;20605;-76
2021/12/26 00:07:42;;;;;;;3.37;3.17;;;;;;;1.96;100.00;91998.03;4898785;28;20491;-76
2021/12/26 00:10:13;;;;;;;1.53;1.50;;;;;;;1.94;100.00;91989.75;4901480;28;20571;-76
2021/12/26 00:12:40;;;;;;;1.20;1.20;;;;;;;1.79;100.00;91990.09;4901531;29;20210;-76
2021/12/26 00:15:09;;;;;;;0.83;0.83;;;;;;;1.72;100.00;91985.25;4902018;28;20488;-76
2021/12/26 00:17:36;;;;;;;0.60;0.60;;;;;;;1.67;100.00;91998.63;4902051;28;20484;-76
2021/12/26 00:20:05;;;;;;;1.73;1.73;;;;;;;1.70;100.00;91984.44;4901957;28;20648;-76
2021/12/26 00:22:34;;;;;;;1.57;1.47;;;;;;;1.81;100.00;92003.31;4901537;28;20288;-76
2021/12/26 00:25:02;;;;;;;1.00;1.00;;;;;;;1.73;100.00;91994.38;4902396;28;20612;-76
2021/12/26 00:27:29;;;;;;;2.53;2.33;;;;;;;1.76;100.00;91999.28;4901917;29;20220;-76
2021/12/26 00:29:56;;;;;;;2.10;2.00;;;;;;;1.74;100.00;92001.00;4902292;28;20491;-76
2021/12/26 00:32:24;;;;;;;1.37;1.37;;;;;;;1.74;100.00;92004.31;4901946;28;20581;-76
2021/12/26 00:34:52;;;;;;;1.67;1.67;;;;;;;1.71;100.00;91998.53;4902000;29;20472;-76
2021/12/26 00:37:20;;;;;;;1.20;1.20;;;;;;;1.84;100.00;92009.91;4900653;28;20718;-76
2021/12/26 00:39:49;;;;;;;2.00;1.90;;;;;;;1.91;100.00;92001.47;4901283;28;20464;-76
2021/12/26 00:42:16;;;;;;;0.80;0.80;;;;;;;1.79;100.00;92007.53;4901034;28;20496;-76
2021/12/26 00:44:43;;;;;;;1.93;1.63;;;;;;;1.80;100.00;92010.81;4900319;28;20468;-76
2021/12/26 00:47:13;;;;;;;1.47;1.37;;;;;;;1.76;100.00;91999.28;4901014;28;20210;-76
2021/12/26 00:49:41;;;;;;;3.50;1.10;;;;;;;1.70;100.00;91999.38;4901430;28;20507;-76
2021/12/26 00:52:09;;;;;;;2.17;2.07;;;;;;;1.73;100.00;92005.16;4900663;28;20205;-76
2021/12/26 00:54:37;;;;;;;1.37;1.27;;;;;;;1.73;100.00;91997.69;4901398;28;20582;-76
2021/12/26 00:57:06;;;;;;;1.07;1.07;;;;;;;1.67;100.00;91985.34;4901491;29;20211;-75
2021/12/26 00:59:33;;;;;;;2.23;2.03;;;;;;;1.74;100.00;91996.84;4901233;28;20582;-76
2021/12/26 01:02:01;;;;;;;1.83;1.83;;;;;;;1.77;100.00;91990.97;4900832;28;20510;-77
2021/12/26 01:04:28;;;;;;;2.37;2.33;;;;;;;1.73;100.00;91987.72;4900877;28;20480;-75
2021/12/26 01:06:57;;;;;;;2.17;2.07;;;;;;;1.75;100.00;91981.00;4900236;28;20232;-76
2021/12/26 01:09:28;;;;;;;1.73;1.73;;;;;;;1.77;100.00;91990.97;4900283;28;20617;-76
2021/12/26 01:12:00;;;;;;;1.80;1.80;;;;;;;1.74;100.00;91973.59;4901199;28;20584;-76
2021/12/26 01:14:31;;;;;;;1.23;1.23;;;;;;;1.81;100.00;91988.38;4901585;28;20202;-76
2021/12/26 01:17:07;;;;;;;0.90;0.90;;;;;;;1.87;100.00;91988.25;4900590;28;20231;-76
2021/12/26 01:19:42;;;;;;;0.97;0.97;;;;;;;1.90;100.00;91982.41;4900241;28;20495;-76
2021/12/26 01:22:11;;;;;;;1.13;1.13;;;;;;;1.93;100.00;91980.66;4900357;28;20628;-76
2021/12/26 01:24:39;;;;;;;1.30;1.30;;;;;;;1.90;100.00;91965.78;4900469;28;20210;-76
2021/12/26 01:27:08;;;;;;;1.47;1.40;;;;;;;1.91;100.00;91976.56;4900753;28;20531;-76
2021/12/26 01:29:37;;;;;;;1.40;1.40;;;;;;;1.76;100.00;91946.97;4900611;28;20221;-76
2021/12/26 01:32:05;;;;;;;1.67;1.67;;;;;;;1.81;100.00;91955.19;4900604;28;20606;-76
2021/12/26 01:34:33;;;;;;;2.73;2.63;;;;;;;1.89;100.00;91963.31;4900503;28;20573;-76
2021/12/26 01:37:00;;;;;;;2.50;2.40;;;;;;;1.85;100.00;91957.59;4900143;28;20571;-76
2021/12/26 01:39:28;;;;;;;1.67;1.13;;;;;;;1.92;100.00;91961.56;4900542;28;20205;-76
2021/12/26 01:42:01;;;;;;;1.47;1.47;;;;;;;1.96;100.00;91968.16;4899923;28;20233;-75
2021/12/26 01:44:28;;;;;;;6.33;1.40;;;;;;;1.83;100.00;91960.97;4900018;28;20582;-75
2021/12/26 01:46:57;;;;;;;1.47;1.47;;;;;;;1.85;100.00;91965.06;4899638;28;20224;-76
2021/12/26 01:49:27;;;;;;;1.20;1.20;;;;;;;1.83;100.00;91964.25;4900398;28;20583;-76
2021/12/26 01:51:56;;;;;;;1.13;1.13;;;;;;;1.82;100.00;91945.19;4899874;28;20606;-76
2021/12/26 01:54:31;;;;;;;0.90;0.90;;;;;;;1.91;100.00;91961.63;4900348;28;20487;-77
2021/12/26 01:57:01;;;;;;;1.20;1.20;;;;;;;1.71;100.00;91947.09;4900445;29;20214;-76
2021/12/26 01:59:29;;;;;;;1.37;1.37;;;;;;;1.78;100.00;91953.59;4889003;28;20563;-76
2021/12/26 02:01:59;;;;;;;1.27;1.27;;;;;;;1.81;100.00;91960.16;4900950;28;20512;-76
2021/12/26 02:04:28;;;;;;;1.10;1.10;;;;;;;1.85;100.00;91961.75;4900545;28;20589;-75
2021/12/26 02:06:56;;;;;;;2.07;2.07;;;;;;;1.82;100.00;91955.16;4899595;28;20217;-76
2021/12/26 02:09:23;;;;;;;1.27;1.27;;;;;;;1.77;100.00;91946.97;4899722;28;20662;-76
2021/12/26 02:11:50;;;;;;;0.90;0.90;;;;;;;1.86;100.00;91953.44;4900344;28;20436;-76
2021/12/26 02:14:18;;;;;;;0.90;0.90;;;;;;;1.82;100.00;91945.19;4900178;28;20600;-76
2021/12/26 02:16:45;;;;;;;2.07;1.97;;;;;;;1.86;100.00;91955.94;4899104;28;20194;-76
2021/12/26 02:19:14;;;;;;;2.03;1.83;;;;;;;1.90;100.00;91953.34;4900199;28;20527;-76
2021/12/26 02:22:03;;;;;;;4.33;2.60;;;;;;;1.90;100.00;91953.34;4898958;28;20226;-76
2021/12/26 02:24:43;;;;;;;1.13;1.13;;;;;;;1.86;100.00;91945.97;4899355;28;20230;-76
2021/12/26 02:29:55;;;;;;;1.07;1.07;;;;;;;1.90;100.00;91957.50;4899731;28;20653;-76
2021/12/26 02:32:22;;;;;;;1.23;1.23;;;;;;;1.96;100.00;91957.38;4899552;28;20477;-76
2021/12/26 02:34:49;;;;;;;0.70;0.70;;;;;;;1.94;100.00;91949.91;4899803;28;20217;-76
2021/12/26 02:37:18;;;;;;;1.23;1.23;;;;;;;2.05;100.00;91948.00;4899464;28;20302;-76
2021/12/26 02:39:46;;;;;;;1.43;1.40;;;;;;;2.02;100.00;91949.75;4899657;28;20535;-76
2021/12/26 02:42:13;;;;;;;1.33;1.33;;;;;;;2.04;100.00;91955.50;4899491;28;20617;-76
2021/12/26 02:44:40;;;;;;;1.00;1.00;;;;;;;1.98;100.00;91946.50;4899107;28;20484;-76
2021/12/26 02:47:07;;;;;;;0.93;0.93;;;;;;;2.10;100.00;91945.41;4898943;28;20511;-76
2021/12/26 02:49:35;;;;;;;0.90;0.90;;;;;;;2.02;100.00;91944.78;4892101;28;20512;-76
2021/12/26 02:52:02;;;;;;;1.20;1.20;;;;;;;1.94;100.00;91937.47;4898938;28;20209;-76
2021/12/26 02:54:31;;;;;;;1.17;1.17;;;;;;;2.03;100.00;91947.22;4899338;28;20466;-76
2021/12/26 02:56:58;;;;;;;1.10;1.10;;;;;;;2.06;100.00;91947.16;4899668;28;20480;-76
2021/12/26 02:59:30;;;;;;;0.97;0.97;;;;;;;2.04;100.00;91953.03;4899080;28;20476;-76
2021/12/26 03:01:58;;;;;;;1.40;1.30;;;;;;;2.01;100.00;91945.63;4898106;28;20609;-76
2021/12/26 03:04:25;;;;;;;0.60;0.60;;;;;;;2.06;100.00;91943.84;4899489;28;20487;-76
2021/12/26 03:06:55;;;;;;;0.90;0.90;;;;;;;2.01;100.00;91936.50;4898458;28;20484;-76
2021/12/26 03:09:22;;;;;;;1.17;1.17;;;;;;;2.02;100.00;91947.28;4899305;28;20473;-76
2021/12/26 03:11:51;;;;;;;2.70;2.50;;;;;;;2.11;100.00;91946.25;4899234;28;20571;-76
2021/12/26 03:14:19;;;;;;;5.77;2.03;;;;;;;2.07;100.00;91950.47;4898908;28;20264;-76
2021/12/26 03:16:48;;;;;;;1.20;1.20;;;;;;;2.08;100.00;91939.66;4899572;28;20507;-76
2021/12/26 03:19:16;;;;;;;1.80;1.70;;;;;;;2.18;100.00;91942.75;4899098;28;20505;-76
2021/12/26 03:21:43;;;;;;;2.67;2.57;;;;;;;2.10;100.00;91957.88;4899126;28;20525;-76
2021/12/26 03:24:11;;;;;;;2.10;2.00;;;;;;;1.99;100.00;91935.69;4899245;28;20251;-76
2021/12/26 03:26:38;;;;;;;6.80;2.30;;;;;;;2.09;100.00;91954.56;4898725;28;20598;-76
2021/12/26 03:29:07;;;;;;;2.90;2.10;;;;;;;1.95;100.00;91943.28;4898663;28;20617;-76
2021/12/26 03:31:34;;;;;;;1.27;1.27;;;;;;;1.91;100.00;91946.69;4900642;28;20472;-76
2021/12/26 03:34:03;;;;;;;2.20;1.67;;;;;;;2.01;100.00;91958.91;4898472;28;20504;-76
2021/12/26 03:36:30;;;;;;;1.87;1.77;;;;;;;2.03;100.00;91951.38;4898463;28;20587;-76
2021/12/26 03:38:58;;;;;;;2.17;2.13;;;;;;;2.08;100.00;91967.06;4898533;28;20632;-76
2021/12/26 03:41:25;;;;;;;1.53;1.53;;;;;;;2.00;100.00;91958.94;4899448;28;20210;-76
2021/12/26 03:43:53;;;;;;;1.80;1.70;;;;;;;1.99;100.00;91949.81;4900662;28;20614;-76
2021/12/26 03:46:21;;;;;;;1.60;1.60;;;;;;;2.10;100.00;91975.31;4891859;29;20566;-76
2021/12/26 03:48:49;;;;;;;7.27;2.57;;;;;;;1.97;100.00;91973.94;4901355;28;20198;-76
2021/12/26 03:51:18;;;;;;;3.47;3.17;;;;;;;1.96;100.00;91963.16;4902136;28;20198;-76
2021/12/26 03:53:45;;;;;;;4.27;4.17;;;;;;;1.92;100.00;91955.78;4902398;28;20675;-76
2021/12/26 03:56:13;;;;;;;7.23;6.63;;;;;;;1.94;100.00;91969.84;4901966;28;20513;-76
2021/12/26 03:58:42;;;;;;;5.43;5.07;;;;;;;1.86;100.00;91975.84;4901893;28;20590;-76
2021/12/26 04:01:09;;;;;;;21.13;6.13;;;;;;;1.82;100.00;91984.22;4902647;28;20655;-76
2021/12/26 04:03:38;;;;;;;6.80;6.27;;;;;;;1.61;100.00;91968.03;4901572;28;20498;-76
2021/12/26 04:06:06;;;;;;;5.00;4.50;;;;;;;1.60;100.00;91974.69;4902115;28;20718;-76
2021/12/26 04:08:33;;;;;;;6.80;4.30;;;;;;;1.46;100.00;91961.72;4901343;28;20485;-76
2021/12/26 04:11:01;;;;;;;4.00;3.90;;;;;;;1.39;100.00;91974.28;4901777;28;20570;-76
2021/12/26 04:13:28;;;;;;;3.90;3.70;;;;;;;1.45;100.00;91992.41;4901646;28;20459;-76
2021/12/26 04:15:55;;;;;;;4.83;4.63;;;;;;;1.43;100.00;91988.31;4901866;28;20205;-76
2021/12/26 04:18:22;;;;;;;2.50;2.30;;;;;;;1.44;100.00;91983.31;4891272;28;20481;-76
2021/12/26 04:20:51;;;;;;;2.63;2.53;;;;;;;1.35;100.00;91985.16;4902501;28;20220;-76
2021/12/26 04:23:18;;;;;;;1.80;1.70;;;;;;;1.32;100.00;91978.56;4902081;29;20656;-76
2021/12/26 04:25:46;;;;;;;3.97;2.70;;;;;;;1.31;100.00;91976.91;4901679;28;20214;-76
2021/12/26 04:28:17;;;;;;;1.30;1.30;;;;;;;1.41;100.00;91985.03;4902052;29;20196;-76
2021/12/26 04:30:45;;;;;;;1.00;1.00;;;;;;;1.44;100.00;91978.31;4901361;28;20674;-76
2021/12/26 04:33:12;;;;;;;1.83;1.73;;;;;;;1.54;100.00;91966.53;4898312;28;20781;-75
2021/12/26 04:35:40;;;;;;;5.23;4.93;;;;;;;1.60;100.00;91968.88;4893380;28;20644;-76
2021/12/26 04:38:09;;;;;;;5.97;5.57;;;;;;;1.62;100.00;91957.25;4894171;28;20539;-77
2021/12/26 04:40:36;;;;;;;6.87;4.43;;;;;;;1.55;100.00;91944.09;4885119;29;20571;-77
2021/12/26 04:43:04;;;;;;;4.53;4.30;;;;;;;1.74;100.00;91963.66;4900074;28;20526;-78
2021/12/26 04:45:31;;;;;;;6.47;5.87;;;;;;;1.72;100.00;91943.75;4899474;28;20297;-78
2021/12/26 04:48:01;;;;;;;8.63;7.17;;;;;;;1.98;100.00;91970.59;4893154;29;20611;-77
2021/12/26 04:50:29;;;;;;;7.70;7.13;;;;;;;2.00;100.00;91961.41;4892971;28;20210;-78
2021/12/26 04:52:58;;;;;;;6.07;5.53;;;;;;;1.85;100.00;91920.25;4900945;28;20484;-77
2021/12/26 04:55:28;;;;;;;5.37;5.07;;;;;;;2.27;100.00;91965.78;4901019;28;20219;-77
2021/12/26 04:57:56;;;;;;;3.00;2.87;;;;;;;2.32;100.00;91964.00;4896598;28;20579;-77
2021/12/26 05:00:27;;;;;;;2.67;2.57;;;;;;;2.21;100.00;91933.53;4899526;28;20494;-78
2021/12/26 05:02:56;;;;;;;3.27;2.97;;;;;;;2.42;100.00;91947.19;4895364;28;20493;-77
2021/12/26 05:05:26;;;;;;;2.90;2.80;;;;;;;2.51;100.00;91951.97;4900490;28;20500;-78
2021/12/26 05:07:54;;;;;;;2.33;2.23;;;;;;;2.48;100.00;91957.81;4900889;28;20462;-78
2021/12/26 05:10:24;;;;;;;6.37;4.13;;;;;;;2.39;100.00;91943.09;4901838;28;20257;-78
2021/12/26 05:12:53;;;;;;;1.30;1.30;;;;;;;2.65;100.00;91944.16;4901257;28;20602;-77
2021/12/26 05:15:21;;;;;;;1.63;1.57;;;;;;;2.70;100.00;91960.66;4902414;28;20472;-78
2021/12/26 05:17:50;;;;;;;1.33;1.33;;;;;;;2.55;100.00;91937.75;4901587;28;20202;-78
2021/12/26 05:20:19;;;;;;;2.73;2.63;;;;;;;2.63;100.00;91949.19;4899995;28;20587;-78
2021/12/26 05:22:47;;;;;;;2.60;2.50;;;;;;;2.60;100.00;91941.75;4893106;28;20592;-78
2021/12/26 05:25:15;;;;;;;3.13;2.33;;;;;;;2.65;100.00;91931.69;4900412;28;20601;-78
2021/12/26 05:27:42;;;;;;;3.73;2.23;;;;;;;2.65;100.00;91936.69;4900755;29;20484;-77
2021/12/26 05:30:14;;;;;;;1.57;1.57;;;;;;;2.85;100.00;91962.75;4900962;28;20563;-79
2021/12/26 05:32:44;;;;;;;1.10;1.10;;;;;;;2.90;100.00;91950.19;4900448;28;20221;-78
2021/12/26 05:35:12;;;;;;;1.73;1.63;;;;;;;2.95;100.00;91948.38;4900203;28;20198;-78
2021/12/26 05:37:40;;;;;;;2.63;1.10;;;;;;;2.99;100.00;91944.13;4899538;28;20662;-78
2021/12/26 05:40:10;;;;;;;1.10;1.10;;;;;;;3.00;100.00;91920.81;4900727;28;20665;-76
2021/12/26 05:42:39;;;;;;;2.73;2.53;;;;;;;3.09;100.00;91941.38;4901336;28;20559;-76
2021/12/26 05:45:09;;;;;;;3.83;3.53;;;;;;;3.22;100.00;91950.16;4900299;28;20210;-76
2021/12/26 05:47:38;;;;;;;7.90;7.23;;;;;;;3.19;100.00;91952.75;4900267;28;20214;-74
2021/12/26 05:50:08;;;;;;;13.40;11.13;;;;;;;3.19;100.00;91941.94;4900482;28;20559;-75
2021/12/26 05:52:36;;;;;;;14.23;10.23;;;;;;;3.16;100.00;91957.81;4899373;28;20493;-75
2021/12/26 05:55:05;;;;;;;23.37;17.13;;;;;;;3.15;100.00;91958.69;4900294;28;20538;-75
2021/12/26 05:57:32;;;;;;;28.53;18.67;;;;;;;3.03;100.00;91961.50;4897703;28;20465;-75
2021/12/26 05:59:59;;;;;;;17.67;14.63;;;;;;;2.99;100.00;91969.88;4894434;28;20580;-73
2021/12/26 06:02:26;;;;;;;44.77;23.80;;;;;;;2.91;100.00;91964.28;4882954;29;20627;-75
2021/12/26 06:04:55;;;;;;;13.47;10.33;;;;;;;2.81;100.00;91977.84;4880096;29;20591;-74
2021/12/26 06:07:22;;;;;;;19.37;15.03;;;;;;;2.66;100.00;91975.69;4880024;29;20615;-74
2021/12/26 06:09:49;;;;;;;15.73;14.10;;;;;;;2.62;100.00;91974.97;4880920;29;20288;-73
2021/12/26 06:12:18;;;;;;;17.03;13.47;;;;;;;2.58;100.00;91972.59;4880502;29;20486;-74
2021/12/26 06:14:46;;;;;;;18.63;13.90;;;;;;;2.56;100.00;91982.59;4880783;29;20533;-75
2021/12/26 06:17:13;;;;;;;15.90;14.33;;;;;;;2.58;100.00;91977.56;4880532;29;20276;-75
2021/12/26 06:19:40;;;;;;;25.67;10.97;;;;;;;2.76;100.00;91987.13;4894130;28;20574;-75
2021/12/26 06:22:09;;;;;;;12.57;11.00;;;;;;;2.86;100.00;91976.06;4900370;28;20216;-78
2021/12/26 06:24:36;;;;;;;16.20;9.20;;;;;;;2.83;100.00;91966.97;4888975;28;20226;-76
2021/12/26 06:27:04;;;;;;;9.70;8.93;;;;;;;2.88;100.00;91947.72;4890065;28;20591;-76
2021/12/26 06:29:31;;;;;;;14.23;7.70;;;;;;;3.13;100.00;91970.38;4891993;28;20610;-75
2021/12/26 06:31:58;;;;;;;17.53;6.97;;;;;;;3.17;100.00;91966.13;4894145;28;20479;-75
2021/12/26 06:34:26;;;;;;;5.00;4.50;;;;;;;3.21;100.00;91970.97;4891635;28;20575;-75
2021/12/26 06:36:53;;;;;;;3.43;3.33;;;;;;;3.34;100.00;91969.81;4895876;28;20575;-73
2021/12/26 06:39:22;;;;;;;3.13;3.00;;;;;;;3.49;100.00;91977.78;4895476;28;20199;-77
2021/12/26 06:41:49;;;;;;;1.47;1.47;;;;;;;3.56;100.00;91974.22;4893558;28;20587;-75
2021/12/26 06:44:16;;;;;;;5.87;5.37;;;;;;;3.63;100.00;91981.53;4897773;28;20584;-76
2021/12/26 06:46:43;;;;;;;4.70;4.57;;;;;;;3.62;100.00;91981.56;4885683;29;20257;-75
2021/12/26 06:49:11;;;;;;;5.17;4.83;;;;;;;3.67;100.00;91977.25;4884403;28;20509;-76
2021/12/26 06:51:38;;;;;;;4.17;3.97;;;;;;;3.75;100.00;91982.88;4897202;28;20484;-76
2021/12/26 06:54:05;;;;;;;3.57;3.47;;;;;;;3.80;100.00;91992.75;4896097;28;20726;-76
2021/12/26 06:56:34;;;;;;;4.83;4.37;;;;;;;3.71;100.00;91972.16;4893038;28;20284;-77
2021/12/26 06:59:01;;;;;;;6.87;3.90;;;;;;;3.77;100.00;91990.34;4889232;28;20586;-77
2021/12/26 07:01:29;;;;;;;8.23;5.77;;;;;;;3.78;100.00;91995.28;4894628;28;20630;-77
2021/12/26 07:03:56;;;;;;;27.00;7.60;;;;;;;3.80;100.00;91985.25;4895600;28;20653;-76
2021/12/26 07:06:24;;;;;;;7.93;7.33;;;;;;;3.75;100.00;91976.22;4897043;28;20474;-76
2021/12/26 07:08:51;;;;;;;7.70;6.87;;;;;;;3.71;100.00;91973.84;4893290;28;20478;-76
2021/12/26 07:11:19;;;;;;;9.60;8.63;;;;;;;3.86;100.00;91980.91;4896042;28;20498;-77
2021/12/26 07:13:47;;;;;;;7.57;6.87;;;;;;;3.94;100.00;91984.00;4894746;28;20206;-77
2021/12/26 07:16:15;;;;;;;4.67;4.40;;;;;;;3.90;100.00;91979.94;4895595;28;20453;-79
2021/12/26 07:18:42;;;;;;;7.83;5.60;;;;;;;3.98;100.00;91974.75;4895507;28;20601;-76
2021/12/26 07:21:09;;;;;;;6.90;6.47;;;;;;;4.04;100.00;91990.38;4896148;29;20571;-77
2021/12/26 07:23:36;;;;;;;4.43;3.77;;;;;;;4.09;100.00;91987.75;4897935;28;20521;-80
2021/12/26 07:26:04;;;;;;;3.87;3.67;;;;;;;4.11;100.00;91991.81;4898323;28;20232;-77
2021/12/26 07:28:31;;;;;;;5.57;5.27;;;;;;;4.20;100.00;91995.75;4894843;28;20203;-76
2021/12/26 07:31:00;;;;;;;7.83;7.17;;;;;;;4.25;100.00;91998.94;4895872;28;20586;-77
2021/12/26 07:33:27;;;;;;;8.57;7.13;;;;;;;4.23;100.00;91974.84;4897973;29;20470;-78
2021/12/26 07:35:55;;;;;;;4.77;4.37;;;;;;;4.30;100.00;91982.13;4893609;28;20475;-76
2021/12/26 07:38:22;;;;;;;5.33;5.03;;;;;;;4.32;100.00;91980.41;4891991;28;20627;-76
2021/12/26 07:40:50;;;;;;;4.23;3.93;;;;;;;4.32;100.00;91974.56;4900020;28;20530;-76
2021/12/26 07:43:17;;;;;;;4.33;4.13;;;;;;;4.20;100.00;91950.75;4899736;28;20567;-76
2021/12/26 07:45:44;;;;;;;3.77;3.67;;;;;;;4.32;100.00;91967.06;4895160;28;20555;-75
2021/12/26 07:48:13;;;;;;;3.40;3.23;;;;;;;4.41;100.00;91974.28;4877082;29;20602;-75
2021/12/26 07:50:41;;;;;;;3.87;3.53;;;;;;;4.50;100.00;91974.84;4894594;29;20470;-78
2021/12/26 07:53:11;;;;;;;10.93;10.00;;;;;;;4.61;100.00;91986.22;4895582;28;20555;-75
2021/12/26 07:55:39;;;;;;;27.20;19.20;;;;;;;4.59;100.00;91972.06;4892963;28;20579;-76
2021/12/26 07:58:07;;;;;;;33.00;19.57;;;;;;;4.59;100.00;91974.56;4891320;28;20571;-75
2021/12/26 08:00:35;;;;;;;20.17;14.43;;;;;;;4.76;100.00;91995.75;4886580;28;20578;-76
2021/12/26 08:03:03;;;;;;;13.47;11.90;;;;;;;4.88;100.00;92005.38;4891185;28;20615;-76
2021/12/26 08:05:32;;;;;;;39.83;24.00;;;;;;;4.94;100.00;92006.00;4900270;28;20582;-76
2021/12/26 08:07:59;;;;;;;44.27;25.37;;;;;;;4.74;100.00;91987.44;4892926;28;20591;-76
2021/12/26 08:10:27;;;;;;;38.97;21.47;;;;;;;4.84;100.00;92003.84;4891226;28;20587;-76
2021/12/26 08:12:54;;;;;;;43.27;22.53;;;;;;;4.79;100.00;91993.94;4891844;28;20582;-76
2021/12/26 08:15:21;;;;;;;28.57;20.33;;;;;;;4.82;100.00;91993.88;4890855;28;20556;-74
2021/12/26 08:17:48;;;;;;;43.87;23.53;;;;;;;4.68;100.00;91965.94;4890167;28;20206;-79
2021/12/26 08:20:16;;;;;;;41.57;25.57;;;;;;;4.96;100.00;91995.91;4891803;28;20476;-77
2021/12/26 08:22:45;;;;;;;27.27;19.90;;;;;;;5.06;100.00;91991.47;4893460;28;20257;-78
2021/12/26 08:25:13;;;;;;;10.10;7.10;;;;;;;5.12;100.00;91982.06;4894286;28;20297;-77
2021/12/26 08:27:41;;;;;;;5.90;5.60;;;;;;;5.14;100.00;91969.47;4887641;29;20575;-77
2021/12/26 08:30:09;;;;;;;7.97;7.27;;;;;;;5.37;100.00;91987.88;4892357;28;20631;-76
2021/12/26 08:32:39;;;;;;;8.67;7.80;;;;;;;5.42;100.00;91995.25;4892575;29;20530;-76
2021/12/26 08:35:08;;;;;;;6.37;5.87;;;;;;;5.57;100.00;91991.41;4893989;28;20576;-77
2021/12/26 08:37:37;;;;;;;11.83;9.83;;;;;;;5.52;100.00;91968.22;4888119;28;20635;-77
2021/12/26 08:40:06;;;;;;;9.27;8.57;;;;;;;5.73;100.00;91988.34;4893218;28;20599;-76
2021/12/26 08:42:34;;;;;;;15.17;11.70;;;;;;;5.82;100.00;91993.00;4891056;28;20224;-76
2021/12/26 08:45:02;;;;;;;19.13;12.97;;;;;;;5.59;100.00;91932.03;4888734;28;21083;-76
2021/12/26 08:47:29;;;;;;;26.03;17.67;;;;;;;5.86;100.00;91968.66;4886884;29;20699;-76
2021/12/26 08:49:58;;;;;;;34.60;21.33;;;;;;;6.04;99.76;91993.09;4899141;28;20206;-76
2021/12/26 08:52:25;;;;;;;26.67;17.00;;;;;;;6.11;98.68;92003.72;4899306;28;20217;-76
2021/12/26 08:54:53;;;;;;;16.37;14.47;;;;;;;6.11;98.99;92002.03;4892984;28;20595;-76
2021/12/26 08:57:21;;;;;;;38.83;19.83;;;;;;;6.18;98.18;92005.16;4885678;29;20758;-76
2021/12/26 08:59:49;;;;;;;51.47;27.30;;;;;;;6.17;98.40;91998.50;4892938;28;20483;-76
2021/12/26 09:02:16;;;;;;;50.03;31.00;;;;;;;6.28;99.01;92001.44;4892668;29;20587;-76
2021/12/26 09:04:43;;;;;;;89.80;37.83;;;;;;;6.30;98.92;92013.94;4889221;28;20226;-76
2021/12/26 09:07:11;;;;;;;44.83;25.10;;;;;;;6.31;98.87;92003.03;4890605;28;20587;-76
2021/12/26 09:09:38;;;;;;;46.30;19.37;;;;;;;6.25;99.20;91991.53;4896066;28;20945;-76
2021/12/26 09:12:07;;;;;;;32.53;20.00;;;;;;;6.31;99.27;91996.28;4897083;28;20238;-76
2021/12/26 09:14:36;;;;;;;31.73;21.00;;;;;;;6.33;99.06;92002.09;4897305;28;20496;-76
2021/12/26 09:17:04;;;;;;;18.17;13.50;;;;;;;6.30;99.00;91989.66;4895369;28;21127;-76
2021/12/26 09:19:32;;;;;;;27.87;17.00;;;;;;;6.27;100.00;91997.28;4892747;28;20650;-77
2021/12/26 09:22:02;;;;;;;19.30;15.83;;;;;;;6.28;100.00;91995.59;4898640;28;20501;-76
2021/12/26 09:24:29;;;;;;;27.03;16.70;;;;;;;6.25;100.00;91989.81;4896646;28;20615;-77
2021/12/26 09:26:56;;;;;;;39.17;22.87;;;;;;;6.28;100.00;91980.56;4893545;28;20611;-77
2021/12/26 09:29:24;;;;;;;38.67;22.87;;;;;;;6.36;100.00;91986.13;4895609;28;20501;-77
2021/12/26 09:31:53;;;;;;;32.67;19.90;;;;;;;6.36;100.00;91979.41;4894775;28;20493;-77
2021/12/26 09:34:21;;;;;;;31.67;16.50;;;;;;;6.42;99.90;91986.69;4896220;28;20226;-77
2021/12/26 09:36:49;;;;;;;33.50;20.43;;;;;;;6.34;100.00;91983.66;4897675;28;20203;-77
2021/12/26 09:39:17;;;;;;;33.77;22.30;;;;;;;6.44;99.84;91974.09;4895123;28;20693;-75
2021/12/26 09:41:44;;;;;;;35.73;23.00;;;;;;;6.43;99.39;91979.97;4893713;28;20568;-76
2021/12/26 09:44:11;;;;;;;54.10;24.80;;;;;;;6.42;100.00;91968.31;4891043;28;20514;-78
2021/12/26 09:46:39;;;;;;;21.47;15.93;;;;;;;6.37;99.61;91965.16;4897445;28;20569;-77
2021/12/26 09:49:08;;;;;;;27.93;15.07;;;;;;;6.37;100.00;91965.16;4897726;28;21024;-77
2021/12/26 09:51:35;;;;;;;17.27;12.27;;;;;;;6.30;100.00;91948.72;4897919;28;20471;-77
2021/12/26 09:54:04;;;;;;;22.27;14.77;;;;;;;6.32;100.00;91960.31;4895471;28;20509;-77
2021/12/26 09:56:32;;;;;;;43.87;22.27;;;;;;;6.31;100.00;91943.63;4897376;28;20590;-77
2021/12/26 09:59:02;;;;;;;34.73;19.13;;;;;;;6.36;100.00;91938.47;4898208;28;20679;-78
2021/12/26 10:01:35;;;;;;;21.57;15.33;;;;;;;6.33;100.00;91919.31;4895918;28;20598;-78
2021/12/26 10:04:03;;;;;;;19.33;13.47;;;;;;;6.44;100.00;91949.81;4894959;28;20485;-76
2021/12/26 10:06:35;;;;;;;30.47;17.53;;;;;;;6.46;100.00;91957.28;4893795;28;20225;-75
2021/12/26 10:09:05;;;;;;;36.00;17.27;;;;;;;6.47;100.00;91961.44;4894949;28;20203;-76
2021/12/26 10:11:35;;;;;;;20.60;14.93;;;;;;;6.48;100.00;91956.34;4889370;28;20568;-76
2021/12/26 10:14:04;;;;;;;11.97;10.67;;;;;;;6.47;100.00;91957.25;4892268;29;20591;-76
2021/12/26 10:16:36;;;;;;;14.13;11.50;;;;;;;6.39;100.00;91955.88;4892538;28;20483;-75
2021/12/26 10:19:05;;;;;;;27.63;16.97;;;;;;;6.24;100.00;91954.78;4896578;28;20571;-75
2021/12/26 10:21:38;;;;;;;46.73;24.17;;;;;;;6.26;100.00;91953.00;4896754;28;20627;-76
2021/12/26 10:24:08;;;;;;;27.00;17.70;;;;;;;6.17;100.00;91939.13;4892460;28;20454;-76
2021/12/26 10:26:38;;;;;;;14.70;10.00;;;;;;;6.17;100.00;91933.31;4899834;28;20586;-75
2021/12/26 10:29:18;;;;;;;13.40;11.20;;;;;;;6.10;100.00;91936.91;4897620;28;20209;-76
2021/12/26 10:31:51;;;;;;;7.97;7.33;;;;;;;5.98;100.00;91918.13;4897343;28;20463;-75
2021/12/26 10:34:23;;;;;;;11.10;10.17;;;;;;;5.98;100.00;91928.13;4897604;28;20477;-76
2021/12/26 10:36:53;;;;;;;17.10;11.63;;;;;;;6.12;100.00;91928.47;4893130;28;20210;-76
2021/12/26 10:39:23;;;;;;;16.87;14.10;;;;;;;6.12;100.00;91920.13;4893165;28;20277;-76
2021/12/26 10:41:54;;;;;;;19.10;13.47;;;;;;;6.31;100.00;91932.81;4895607;28;20553;-76
2021/12/26 10:44:24;;;;;;;15.70;10.03;;;;;;;6.31;100.00;91930.28;4887326;28;20502;-76
2021/12/26 10:46:54;;;;;;;8.13;7.37;;;;;;;6.27;100.00;91927.06;4892157;28;20578;-75
2021/12/26 10:49:23;;;;;;;7.63;7.13;;;;;;;6.21;100.00;91929.78;4895897;28;20190;-76
2021/12/26 10:51:51;;;;;;;16.97;11.40;;;;;;;6.20;100.00;91936.50;4893378;28;20576;-75
2021/12/26 10:54:25;;;;;;;18.33;11.30;;;;;;;6.20;100.00;91938.19;4894071;28;20533;-75
2021/12/26 10:57:10;;;;;;;19.20;7.13;;;;;;;6.08;100.00;91908.59;4894138;28;20570;-76
2021/12/26 10:59:40;;;;;;;8.80;8.00;;;;;;;6.24;100.00;91927.19;4895149;28;20634;-76
2021/12/26 11:02:08;;;;;;;10.93;8.43;;;;;;;6.15;100.00;91920.00;4893896;28;20572;-76
2021/12/26 11:04:36;;;;;;;8.47;5.50;;;;;;;6.23;100.00;91923.03;4892178;28;20520;-75
2021/12/26 11:07:08;;;;;;;17.13;6.70;;;;;;;6.30;100.00;91929.47;4893209;28;20277;-75
2021/12/26 11:09:36;;;;;;;18.70;10.60;;;;;;;6.20;100.00;91908.91;4890307;28;20500;-76
2021/12/26 11:12:07;;;;;;;11.47;9.97;;;;;;;6.35;100.00;91922.59;4880579;29;20498;-76
2021/12/26 11:15:01;;;;;;;35.40;19.13;;;;;;;6.45;100.00;91926.38;4895878;28;20575;-75
2021/12/26 11:17:31;;;;;;;26.80;15.77;;;;;;;6.46;100.00;91925.50;4898472;28;20245;-76
2021/12/26 11:20:00;;;;;;;34.27;17.53;;;;;;;6.51;100.00;91913.59;4897850;28;20516;-72
2021/12/26 11:22:29;;;;;;;13.03;11.77;;;;;;;6.73;100.00;91926.13;4897252;28;20638;-75
2021/12/26 11:24:57;;;;;;;21.90;14.53;;;;;;;6.68;100.00;91919.63;4895515;28;20614;-76
2021/12/26 11:27:25;;;;;;;61.53;29.70;;;;;;;6.76;100.00;91925.97;4888717;28;20204;-76
2021/12/26 11:29:53;;;;;;;54.73;29.37;;;;;;;6.84;100.00;91918.16;4891705;28;20519;-77
2021/12/26 11:32:24;;;;;;;31.73;18.17;;;;;;;6.92;99.68;91937.06;4893650;28;20276;-75
2021/12/26 11:34:52;;;;;;;25.87;17.57;;;;;;;6.81;100.00;91925.81;4894217;28;20191;-76
2021/12/26 11:37:20;;;;;;;35.63;19.00;;;;;;;6.93;100.00;91951.22;4895300;28;20634;-76